createdAt,value
2023-02-14T00:01:41.990Z,1.80
2023-02-14T00:04:11.887Z,1.80
2023-02-14T00:06:40.931Z,1.80
2023-02-14T00:09:11.768Z,1.80
2023-02-14T00:11:41.109Z,1.80
2023-02-14T00:14:27.334Z,1.80
2023-02-14T00:16:55.740Z,1.70
2023-02-14T00:19:25.554Z,1.80
2023-02-14T00:21:53.953Z,1.80
2023-02-14T00:24:25.052Z,1.70
2023-02-14T00:26:54.057Z,1.70
2023-02-14T00:29:24.204Z,1.70
2023-02-14T00:31:52.655Z,1.70
2023-02-14T00:34:21.779Z,1.70
2023-02-14T00:36:51.560Z,1.70
2023-02-14T00:39:20.991Z,1.70
2023-02-14T00:41:49.393Z,1.70
2023-02-14T00:44:18.409Z,1.80
2023-02-14T00:46:46.881Z,1.80
2023-02-14T00:49:15.132Z,1.80
2023-02-14T00:51:43.327Z,1.80
2023-02-14T00:54:12.876Z,1.80
2023-02-14T00:56:41.050Z,1.80
2023-02-14T00:59:10.785Z,1.80
2023-02-14T01:01:38.973Z,1.90
2023-02-14T01:04:07.709Z,1.90
2023-02-14T01:06:36.312Z,1.90
2023-02-14T01:09:05.474Z,1.90
2023-02-14T01:11:36.014Z,1.90
2023-02-14T01:14:04.563Z,2.00
2023-02-14T01:16:32.859Z,2.00
2023-02-14T01:19:01.984Z,2.00
2023-02-14T01:21:33.531Z,2.00
2023-02-14T01:24:03.762Z,2.10
2023-02-14T01:26:32.391Z,2.10
2023-02-14T01:29:04.894Z,2.10
2023-02-14T01:31:34.821Z,2.10
2023-02-14T01:34:03.589Z,2.10
2023-02-14T01:36:34.116Z,2.00
2023-02-14T01:39:05.505Z,2.00
2023-02-14T01:41:36.028Z,2.00
2023-02-14T01:44:08.594Z,2.00
2023-02-14T01:46:38.872Z,2.00
2023-02-14T01:49:10.733Z,1.90
2023-02-14T01:51:45.792Z,1.90
2023-02-14T01:54:14.937Z,1.90
2023-02-14T01:56:50.822Z,1.90
2023-02-14T01:59:23.168Z,1.90
2023-02-14T02:01:53.346Z,1.90
2023-02-14T02:04:26.999Z,1.90
2023-02-14T02:07:02.655Z,1.90
2023-02-14T02:09:35.184Z,1.80
2023-02-14T02:12:03.924Z,1.80
2023-02-14T02:14:34.068Z,1.80
2023-02-14T02:17:24.317Z,1.80
2023-02-14T02:20:19.361Z,1.80
2023-02-14T02:23:31.235Z,1.80
2023-02-14T02:26:29.656Z,1.80
2023-02-14T02:29:32.888Z,1.80
2023-02-14T02:32:32.744Z,1.80
2023-02-14T02:35:19.088Z,1.80
2023-02-14T02:38:01.748Z,1.80
2023-02-14T02:40:41.022Z,1.80
2023-02-14T02:43:22.339Z,1.80
2023-02-14T02:46:17.739Z,1.80
2023-02-14T02:48:56.089Z,1.80
2023-02-14T02:51:51.970Z,1.70
2023-02-14T02:54:28.211Z,1.80
2023-02-14T02:57:01.290Z,1.80
2023-02-14T02:59:32.060Z,1.80
2023-02-14T03:02:06.377Z,1.80
2023-02-14T03:05:03.383Z,1.80
2023-02-14T03:07:36.615Z,1.90
2023-02-14T03:10:14.520Z,1.90
2023-02-14T03:13:24.806Z,1.90
2023-02-14T03:16:23.076Z,1.90
2023-02-14T03:19:21.433Z,1.80
2023-02-14T03:21:55.787Z,1.80
2023-02-14T03:24:31.204Z,1.80
2023-02-14T03:27:07.107Z,1.80
2023-02-14T03:29:46.262Z,1.80
2023-02-14T03:32:21.470Z,1.80
2023-02-14T03:34:58.755Z,1.80
2023-02-14T03:37:33.483Z,1.80
2023-02-14T03:40:10.471Z,1.80
2023-02-14T03:42:44.805Z,1.80
2023-02-14T03:45:19.150Z,1.80
2023-02-14T03:47:49.608Z,1.80
2023-02-14T03:50:20.190Z,1.70
2023-02-14T03:52:52.933Z,1.70
2023-02-14T03:55:29.135Z,1.70
2023-02-14T03:58:04.205Z,1.70
2023-02-14T04:00:37.989Z,1.70
2023-02-14T04:03:13.027Z,1.70
2023-02-14T04:05:44.331Z,1.70
2023-02-14T04:08:12.825Z,1.70
2023-02-14T04:10:45.250Z,1.70
2023-02-14T04:13:13.462Z,1.70
2023-02-14T04:15:41.714Z,1.70
2023-02-14T04:18:28.283Z,1.70
2023-02-14T04:20:56.470Z,1.80
2023-02-14T04:23:24.756Z,1.80
2023-02-14T04:25:54.325Z,1.80
2023-02-14T04:28:22.682Z,1.80
2023-02-14T04:30:50.987Z,1.70
2023-02-14T04:33:19.310Z,1.70
2023-02-14T04:35:47.486Z,1.70
2023-02-14T04:38:16.034Z,1.60
2023-02-14T04:40:44.412Z,1.60
2023-02-14T04:43:14.088Z,1.60
2023-02-14T04:45:42.280Z,1.60
2023-02-14T04:48:10.465Z,1.60
2023-02-14T04:50:38.890Z,1.60
2023-02-14T04:53:07.278Z,1.60
2023-02-14T04:55:35.755Z,1.50
2023-02-14T04:58:05.139Z,1.50
2023-02-14T05:00:35.014Z,1.50
2023-02-14T05:03:03.243Z,1.50
2023-02-14T05:05:31.424Z,1.50
2023-02-14T05:07:59.712Z,1.50
2023-02-14T05:10:29.364Z,1.50
2023-02-14T05:12:57.612Z,1.50
2023-02-14T05:15:25.773Z,1.50
2023-02-14T05:17:55.351Z,1.50
2023-02-14T05:20:23.538Z,1.50
2023-02-14T05:22:51.798Z,1.50
2023-02-14T05:25:20.329Z,1.50
2023-02-14T05:27:48.501Z,1.50
2023-02-14T05:30:17.284Z,1.50
2023-02-14T05:32:45.629Z,1.50
2023-02-14T05:35:15.162Z,1.40
2023-02-14T05:37:43.358Z,1.40
2023-02-14T05:40:13.509Z,1.30
2023-02-14T05:42:41.692Z,1.30
2023-02-14T05:45:11.803Z,1.30
2023-02-14T05:47:40.407Z,1.20
2023-02-14T05:50:09.505Z,1.20
2023-02-14T05:52:39.461Z,1.20
2023-02-14T05:55:08.623Z,1.20
2023-02-14T05:57:37.276Z,1.20
2023-02-14T06:00:07.136Z,1.20
2023-02-14T06:02:41.603Z,1.20
2023-02-14T06:05:10.232Z,1.20
2023-02-14T06:07:39.852Z,1.20
2023-02-14T06:10:09.986Z,1.20
2023-02-14T06:12:38.277Z,1.20
2023-02-14T06:15:07.337Z,1.20
2023-02-14T06:17:35.571Z,1.20
2023-02-14T06:20:03.746Z,1.20
2023-02-14T06:22:32.034Z,1.10
2023-02-14T06:25:01.513Z,1.10
2023-02-14T06:27:30.375Z,1.20
2023-02-14T06:29:58.902Z,1.20
2023-02-14T06:32:27.488Z,1.20
2023-02-14T06:34:55.791Z,1.20
2023-02-14T06:37:24.353Z,1.10
2023-02-14T06:39:52.544Z,1.10
2023-02-14T06:42:22.195Z,1.10
2023-02-14T06:44:50.367Z,1.10
2023-02-14T06:47:18.698Z,1.10
2023-02-14T06:49:46.896Z,1.00
2023-02-14T06:52:15.142Z,1.00
2023-02-14T06:54:43.355Z,1.00
2023-02-14T06:57:11.515Z,1.00
2023-02-14T06:59:41.043Z,1.10
2023-02-14T07:02:11.615Z,1.10
2023-02-14T07:04:40.140Z,1.00
2023-02-14T07:07:08.325Z,1.00
2023-02-14T07:09:36.534Z,1.10
2023-02-14T07:12:05.044Z,1.10
2023-02-14T07:14:33.249Z,1.10
2023-02-14T07:17:02.762Z,1.00
2023-02-14T07:19:30.943Z,1.00
2023-02-14T07:21:59.170Z,1.10
2023-02-14T07:24:27.506Z,1.10
2023-02-14T07:26:55.691Z,1.10
2023-02-14T07:29:23.983Z,1.30
2023-02-14T07:31:52.338Z,1.30
2023-02-14T07:34:21.974Z,1.40
2023-02-14T07:36:50.097Z,1.40
2023-02-14T07:39:18.354Z,1.40
2023-02-14T07:41:46.611Z,1.40
2023-02-14T07:44:18.035Z,1.40
2023-02-14T07:46:46.525Z,1.40
2023-02-14T07:49:14.776Z,1.40
2023-02-14T07:51:44.737Z,1.50
2023-02-14T07:54:12.945Z,1.50
2023-02-14T07:56:41.206Z,1.50
2023-02-14T07:59:09.347Z,1.50
2023-02-14T08:01:37.616Z,1.50
2023-02-14T08:04:06.182Z,1.60
2023-02-14T08:06:34.623Z,1.60
2023-02-14T08:09:04.282Z,1.70
2023-02-14T08:11:49.940Z,1.70
2023-02-14T08:14:18.294Z,1.80
2023-02-14T08:16:46.593Z,1.80
2023-02-14T08:19:15.006Z,1.80
2023-02-14T08:21:43.468Z,1.80
2023-02-14T08:24:13.094Z,1.80
2023-02-14T08:26:41.315Z,1.80
2023-02-14T08:29:09.657Z,1.90
2023-02-14T08:31:38.488Z,1.90
2023-02-14T08:34:07.558Z,1.90
2023-02-14T08:36:36.139Z,1.90
2023-02-14T08:39:05.332Z,2.00
2023-02-14T08:41:35.764Z,2.00
2023-02-14T08:44:04.426Z,2.10
2023-02-14T08:46:32.944Z,2.10
2023-02-14T08:49:01.479Z,2.20
2023-02-14T08:51:29.987Z,2.10
2023-02-14T08:53:58.277Z,2.10
2023-02-14T08:56:26.749Z,2.10
2023-02-14T08:58:56.563Z,2.20
2023-02-14T09:01:24.998Z,2.30
2023-02-14T09:03:53.768Z,2.30
2023-02-14T09:06:22.327Z,2.40
2023-02-14T09:08:51.834Z,2.50
2023-02-14T09:11:22.823Z,2.60
2023-02-14T09:13:53.382Z,2.70
2023-02-14T09:16:24.348Z,2.70
2023-02-14T09:18:54.705Z,2.90
2023-02-14T09:21:25.873Z,2.90
2023-02-14T09:23:54.447Z,3.00
2023-02-14T09:26:23.149Z,3.10
2023-02-14T09:28:51.629Z,3.20
2023-02-14T09:31:23.990Z,3.20
2023-02-14T09:33:53.200Z,3.20
2023-02-14T09:36:21.403Z,3.20
2023-02-14T09:38:49.695Z,3.30
2023-02-14T09:41:42.342Z,3.30
2023-02-14T09:44:22.549Z,3.30
2023-02-14T09:46:55.847Z,3.40
2023-02-14T09:49:31.672Z,3.50
2023-02-14T09:52:02.816Z,3.50
2023-02-14T09:54:33.393Z,3.60
2023-02-14T09:57:07.047Z,3.60
2023-02-14T09:59:40.888Z,3.70
2023-02-14T10:02:26.502Z,3.70
2023-02-14T10:05:02.895Z,3.80
2023-02-14T10:07:37.946Z,3.90
2023-02-14T10:10:14.377Z,3.90
2023-02-14T10:12:47.258Z,3.80
2023-02-14T10:15:19.578Z,3.80
2023-02-14T10:17:53.579Z,3.80
2023-02-14T10:20:30.114Z,3.80
2023-02-14T10:23:04.990Z,3.90
2023-02-14T10:25:42.223Z,3.90
2023-02-14T10:28:16.659Z,3.90
2023-02-14T10:30:54.897Z,3.90
2023-02-14T10:33:30.915Z,3.80
2023-02-14T10:36:05.814Z,3.80
2023-02-14T10:38:42.279Z,3.80
2023-02-14T10:41:27.840Z,3.80
2023-02-14T10:44:14.816Z,3.80
2023-02-14T10:46:50.248Z,3.80
2023-02-14T10:49:32.754Z,3.90
2023-02-14T10:52:09.874Z,3.90
2023-02-14T10:54:40.103Z,3.90
2023-02-14T10:57:15.820Z,4.00
2023-02-14T10:59:52.088Z,4.10
2023-02-14T11:02:29.532Z,4.20
2023-02-14T11:05:01.197Z,4.20
2023-02-14T11:07:31.057Z,4.30
2023-02-14T11:10:00.595Z,4.40
2023-02-14T11:12:38.307Z,4.50
2023-02-14T11:15:20.409Z,4.60
2023-02-14T11:17:49.721Z,4.70
2023-02-14T11:20:30.780Z,4.80
2023-02-14T11:22:59.197Z,4.80
2023-02-14T11:25:29.710Z,4.90
2023-02-14T11:28:01.749Z,4.80
2023-02-14T11:30:35.325Z,4.80
2023-02-14T11:33:04.794Z,4.80
2023-02-14T11:35:34.871Z,4.80
2023-02-14T11:38:05.491Z,4.80
2023-02-14T11:40:35.797Z,4.90
2023-02-14T11:43:21.232Z,4.90
2023-02-14T11:45:50.749Z,5.00
2023-02-14T11:48:36.757Z,5.00
2023-02-14T11:51:10.198Z,5.10
2023-02-14T11:53:45.912Z,5.10
2023-02-14T11:56:15.395Z,5.10
2023-02-14T11:58:50.234Z,5.10
2023-02-14T12:01:25.514Z,5.10
2023-02-14T12:03:55.989Z,5.00
2023-02-14T12:06:27.956Z,4.90
2023-02-14T12:09:14.291Z,4.90
2023-02-14T12:11:42.526Z,4.90
2023-02-14T12:14:23.217Z,4.90
2023-02-14T12:16:57.484Z,4.90
2023-02-14T12:19:33.523Z,4.90
2023-02-14T12:22:05.258Z,5.00
2023-02-14T12:24:37.525Z,5.00
2023-02-14T12:27:18.276Z,5.00
2023-02-14T12:29:50.623Z,5.10
2023-02-14T12:32:23.646Z,5.10
2023-02-14T12:34:54.444Z,5.10
2023-02-14T12:37:32.347Z,5.20
2023-02-14T12:40:12.270Z,5.20
2023-02-14T12:43:21.118Z,5.20
2023-02-14T12:46:12.821Z,5.20
2023-02-14T12:48:53.779Z,5.30
2023-02-14T12:51:29.294Z,5.30
2023-02-14T12:54:13.241Z,5.30
2023-02-14T12:56:51.653Z,5.20
2023-02-14T12:59:29.755Z,5.20
2023-02-14T13:02:17.927Z,5.20
2023-02-14T13:05:06.835Z,5.30
2023-02-14T13:08:08.209Z,5.30
2023-02-14T13:10:48.005Z,5.20
2023-02-14T13:13:24.971Z,5.20
2023-02-14T13:15:59.891Z,5.20
2023-02-14T13:18:40.644Z,5.20
2023-02-14T13:21:12.196Z,5.30
2023-02-14T13:23:42.937Z,5.30
2023-02-14T13:26:16.436Z,5.40
2023-02-14T13:28:50.622Z,5.30
2023-02-14T13:31:20.122Z,5.30
2023-02-14T13:33:53.036Z,5.20
2023-02-14T13:36:22.086Z,5.20
2023-02-14T13:41:29.431Z,5.10
2023-02-14T13:44:01.534Z,5.10
2023-02-14T13:46:51.794Z,5.10
2023-02-14T13:49:29.056Z,5.10
2023-02-14T13:51:59.337Z,5.10
2023-02-14T13:54:44.625Z,5.20
2023-02-14T13:57:31.476Z,5.30
2023-02-14T14:00:23.438Z,5.30
2023-02-14T14:02:52.227Z,5.30
2023-02-14T14:05:59.494Z,5.20
2023-02-14T14:08:46.114Z,5.20
2023-02-14T14:12:01.818Z,5.10
2023-02-14T14:14:36.583Z,5.00
2023-02-14T14:17:21.533Z,4.90
2023-02-14T14:19:50.659Z,4.80
2023-02-14T14:22:22.921Z,4.80
2023-02-14T14:25:00.284Z,4.80
2023-02-14T14:27:32.957Z,4.70
2023-02-14T14:30:04.141Z,4.70
2023-02-14T14:32:35.260Z,4.60
2023-02-14T14:35:08.252Z,4.60
2023-02-14T14:37:38.292Z,4.60
2023-02-14T14:40:09.596Z,4.60
2023-02-14T14:42:40.135Z,4.60
2023-02-14T14:45:22.627Z,4.60
2023-02-14T14:47:54.363Z,4.60
2023-02-14T14:50:24.892Z,4.60
2023-02-14T14:52:56.595Z,4.60
2023-02-14T14:55:27.587Z,4.60
2023-02-14T14:57:58.230Z,4.60
2023-02-14T15:00:30.152Z,4.60
2023-02-14T15:03:04.659Z,4.60
2023-02-14T15:05:35.956Z,4.60
2023-02-14T15:08:31.872Z,4.60
2023-02-14T15:11:03.260Z,4.60
2023-02-14T15:13:51.007Z,4.60
2023-02-14T15:16:23.367Z,4.50
2023-02-14T15:18:54.778Z,4.50
2023-02-14T15:21:25.206Z,4.50
2023-02-14T15:23:55.034Z,4.50
2023-02-14T15:26:29.504Z,4.50
2023-02-14T15:29:00.245Z,4.40
2023-02-14T15:31:42.463Z,4.40
2023-02-14T15:34:13.318Z,4.40
2023-02-14T15:36:54.311Z,4.30
2023-02-14T15:39:27.312Z,4.30
2023-02-14T15:41:56.706Z,4.30
2023-02-14T15:44:27.337Z,4.30
2023-02-14T15:47:00.243Z,4.20
2023-02-14T15:49:33.993Z,4.20
2023-02-14T15:52:04.356Z,4.20
2023-02-14T15:54:37.904Z,4.10
2023-02-14T15:57:08.828Z,4.00
2023-02-14T15:59:42.772Z,4.00
2023-02-14T16:02:24.645Z,3.90
2023-02-14T16:04:53.048Z,3.80
2023-02-14T16:07:25.232Z,3.60
2023-02-14T16:10:23.975Z,3.50
2023-02-14T16:13:01.351Z,3.50
2023-02-14T16:15:31.875Z,3.50
2023-02-14T16:18:06.926Z,3.50
2023-02-14T16:20:41.145Z,3.50
2023-02-14T16:23:24.597Z,3.50
2023-02-14T16:25:53.205Z,3.50
2023-02-14T16:28:21.711Z,3.50
2023-02-14T16:30:55.893Z,3.50
2023-02-14T16:33:28.225Z,3.50
2023-02-14T16:36:02.180Z,3.50
2023-02-14T16:38:30.550Z,3.50
2023-02-14T16:40:58.979Z,3.50
2023-02-14T16:43:27.506Z,3.50
2023-02-14T16:45:55.946Z,3.40
2023-02-14T16:48:25.503Z,3.40
2023-02-14T16:50:53.687Z,3.40
2023-02-14T16:53:26.850Z,3.40
2023-02-14T16:55:57.688Z,3.30
2023-02-14T16:58:33.032Z,3.30
2023-02-14T17:01:01.806Z,3.30
2023-02-14T17:03:31.620Z,3.30
2023-02-14T17:06:02.323Z,3.30
2023-02-14T17:08:30.929Z,3.20
2023-02-14T17:11:02.238Z,3.10
2023-02-14T17:13:33.657Z,3.10
2023-02-14T17:16:02.644Z,3.00
2023-02-14T17:18:33.634Z,3.00
2023-02-14T17:21:02.678Z,2.90
2023-02-14T17:23:31.171Z,2.90
2023-02-14T17:25:59.411Z,2.90
2023-02-14T17:28:27.757Z,2.90
2023-02-14T17:30:56.414Z,2.80
2023-02-14T17:33:26.036Z,2.80
2023-02-14T17:35:55.621Z,2.80
2023-02-14T17:38:24.065Z,2.80
2023-02-14T17:40:52.392Z,2.70
2023-02-14T17:43:20.534Z,2.70
2023-02-14T17:45:49.002Z,2.60
2023-02-14T17:48:17.338Z,2.60
2023-02-14T17:50:45.856Z,2.60
2023-02-14T17:53:15.364Z,2.60
2023-02-14T17:55:43.689Z,2.60
2023-02-14T17:58:11.850Z,2.60
2023-02-14T18:00:40.222Z,2.60
2023-02-14T18:03:08.488Z,2.60
2023-02-14T18:05:37.402Z,2.60
2023-02-14T18:08:06.168Z,2.60
2023-02-14T18:10:35.689Z,2.50
2023-02-14T18:13:04.307Z,2.50
2023-02-14T18:15:32.590Z,2.40
2023-02-14T18:18:00.958Z,2.30
2023-02-14T18:20:29.209Z,2.30
2023-02-14T18:22:57.476Z,2.30
2023-02-14T18:25:26.140Z,2.30
2023-02-14T18:27:57.331Z,2.30
2023-02-14T18:30:25.617Z,2.30
2023-02-14T18:32:55.387Z,2.30
2023-02-14T18:35:26.899Z,2.30
2023-02-14T18:37:56.127Z,2.20
2023-02-14T18:40:25.251Z,2.20
2023-02-14T18:42:53.995Z,2.10
2023-02-14T18:45:24.823Z,2.10
2023-02-14T18:47:53.705Z,2.10
2023-02-14T18:50:23.028Z,2.10
2023-02-14T18:52:51.859Z,2.00
2023-02-14T18:55:20.809Z,1.90
2023-02-14T18:57:50.104Z,1.90
2023-02-14T19:00:21.981Z,1.90
2023-02-14T19:02:53.407Z,1.90
2023-02-14T19:05:22.234Z,1.90
2023-02-14T19:07:55.781Z,1.90
2023-02-14T19:10:24.874Z,2.00
2023-02-14T19:12:53.601Z,2.00
2023-02-14T19:15:21.828Z,2.10
2023-02-14T19:17:50.082Z,2.20
2023-02-14T19:20:20.019Z,2.30
2023-02-14T19:22:48.445Z,2.40
2023-02-14T19:25:16.736Z,2.50
2023-02-14T19:27:45.125Z,2.50
2023-02-14T19:30:14.268Z,2.60
2023-02-14T19:32:43.448Z,2.50
2023-02-14T19:35:11.890Z,2.50
2023-02-14T19:37:41.511Z,2.40
2023-02-14T19:40:10.758Z,2.40
2023-02-14T19:42:38.942Z,2.40
2023-02-14T19:45:07.635Z,2.30
2023-02-14T19:47:46.625Z,2.30
2023-02-14T19:50:15.449Z,2.20
2023-02-14T19:52:45.050Z,2.20
2023-02-14T19:55:22.550Z,2.10
2023-02-14T19:57:50.828Z,2.10
2023-02-14T20:00:20.955Z,2.00
2023-02-14T20:02:49.354Z,2.00
2023-02-14T20:05:18.531Z,2.00
2023-02-14T20:07:51.969Z,1.90
2023-02-14T20:10:20.795Z,1.90
2023-02-14T20:12:49.548Z,1.90
2023-02-14T20:15:17.848Z,1.90
2023-02-14T20:17:47.170Z,1.90
2023-02-14T20:20:16.839Z,1.90
2023-02-14T20:22:45.522Z,1.80
2023-02-14T20:25:15.457Z,1.80
2023-02-14T20:27:44.035Z,1.80
2023-02-14T20:30:14.471Z,1.80
2023-02-14T20:32:43.013Z,1.80
2023-02-14T20:35:11.641Z,1.80
2023-02-14T20:37:39.996Z,1.90
2023-02-14T20:40:10.884Z,1.90
2023-02-14T20:42:41.124Z,1.90
2023-02-14T20:45:09.907Z,2.00
2023-02-14T20:47:38.160Z,1.90
2023-02-14T20:50:07.572Z,2.00
2023-02-14T20:52:37.738Z,2.00
2023-02-14T20:55:06.597Z,2.10
2023-02-14T20:57:34.811Z,2.10
2023-02-14T21:00:06.077Z,2.10
2023-02-14T21:02:34.335Z,2.10
2023-02-14T21:05:05.302Z,2.00
2023-02-14T21:07:33.837Z,2.00
2023-02-14T21:10:02.710Z,2.00
2023-02-14T21:12:31.373Z,2.00
2023-02-14T21:14:59.985Z,2.00
2023-02-14T21:17:29.736Z,2.00
2023-02-14T21:19:57.939Z,1.90
2023-02-14T21:22:26.393Z,1.90
2023-02-14T21:24:54.595Z,1.90
2023-02-14T21:27:22.881Z,1.90
2023-02-14T21:29:51.186Z,1.90
2023-02-14T21:32:19.948Z,1.90
2023-02-14T21:34:50.772Z,1.80
2023-02-14T21:37:19.668Z,1.80
2023-02-14T21:39:48.656Z,1.80
2023-02-14T21:42:18.995Z,1.80
2023-02-14T21:45:03.873Z,1.80
2023-02-14T21:47:32.221Z,1.80
2023-02-14T21:50:36.410Z,1.80
2023-02-14T21:53:07.424Z,1.80
2023-02-14T21:55:35.962Z,1.90
2023-02-14T21:58:04.342Z,1.90
2023-02-14T22:00:32.540Z,1.80
2023-02-14T22:03:00.749Z,1.90
2023-02-14T22:05:30.225Z,1.80
2023-02-14T22:07:58.421Z,1.80
2023-02-14T22:10:26.604Z,1.70
2023-02-14T22:12:54.738Z,1.70
2023-02-14T22:15:22.932Z,1.60
2023-02-14T22:17:51.151Z,1.60
2023-02-14T22:20:19.495Z,1.60
2023-02-14T22:22:49.005Z,1.60
2023-02-14T22:25:17.272Z,1.60
2023-02-14T22:27:45.430Z,1.60
2023-02-14T22:30:14.147Z,1.60
2023-02-14T22:32:42.847Z,1.60
2023-02-14T22:35:10.969Z,1.60
2023-02-14T22:37:39.201Z,1.60
2023-02-14T22:40:10.168Z,1.50
2023-02-14T22:42:38.596Z,1.50
2023-02-14T22:45:07.735Z,1.50
2023-02-14T22:47:36.181Z,1.50
2023-02-14T22:50:04.479Z,1.50
2023-02-14T22:52:32.683Z,1.50
2023-02-14T22:55:00.865Z,1.50
2023-02-14T22:57:32.394Z,1.50
2023-02-14T23:00:00.574Z,1.50
2023-02-14T23:02:28.811Z,1.40
2023-02-14T23:04:57.365Z,1.40
2023-02-14T23:07:25.524Z,1.40
2023-02-14T23:09:53.924Z,1.40
2023-02-14T23:12:39.804Z,1.40
2023-02-14T23:15:27.799Z,1.40
2023-02-14T23:18:12.982Z,1.40
2023-02-14T23:20:58.611Z,1.30
2023-02-14T23:23:30.381Z,1.40
2023-02-14T23:25:58.867Z,1.30
2023-02-14T23:28:27.865Z,1.40
2023-02-14T23:31:01.254Z,1.40
2023-02-14T23:33:29.456Z,1.40
2023-02-14T23:35:57.678Z,1.50
2023-02-14T23:38:25.893Z,1.50
2023-02-14T23:41:11.385Z,1.50
2023-02-14T23:43:39.654Z,1.50
2023-02-14T23:46:09.260Z,1.60
2023-02-14T23:48:37.608Z,1.60
2023-02-14T23:51:06.262Z,1.60
2023-02-14T23:53:34.501Z,1.60
2023-02-14T23:56:03.669Z,1.60
2023-02-14T23:58:32.238Z,1.60
